Aldrich, Minnesota
Current Conditions -  °F | °C
As of 5:33 PM on Saturday 22 Nov 2014 (Local Time) from KSAZ Reporting Station
Haze Haze  
Wind Chill: 22°   Ceiling: 800
Heat Index: 30°   Visibility: 5mi
Dew Point: 30°   Wind: 9mph
Humidity: 100%   Direction: 140°SE
Pressure: 29.51"   Gusts: 17mph
Location:  46.38°N, 94.94°W
Report Text: KSAZ 222333Z AUTO 14008G15KT 113V173 5SM BR BKN008 M01/M01 A2951 RMK AO2
Loading
Personal Weather Stations






























Interactive Weather Map New forecast layout! Learn more

10-Day Weather Forecast

Advertisements
Track Severe Weather on mobile